QTR40T OTHH-EHAM
Flight info
| Callsign | QTR40T |
|---|---|
| Flight time | 6h 48m |
| Altitude | 32000 |
| Route | DATRI L564 BAT/N0499F290 L564 MIGMA/N0487F280 M628 AMBAG/N0499F300 M321 KSA T503 OVANO L768 FIRAS R655 KTN R785 NIKAS L619 VESAR UB545 OKLAM/N0481F320 UL619 OSVEL UQ23 OSDAN UQ26 DIGBO UL615 VADEN/N0462F280 L610 UTEKA/N0475F320 DCT BABIT DCT SOGMO DCT SASAL DCT RENKA DCT GASKA DCT MAPOX DCT NORKU |
| Aircraft | B77F/H-SDE1E2E3FGHIJ2J3J4J5M1RWXY/LB1D1 |
Departure
| Time | 2026-05-04 06:25 |
|---|---|
| Airport | Hamad International Airport (OTHH) |
Arrival
| Time | 2026-05-04 13:14 |
|---|---|
| Airport | Amsterdam Airport Schiphol (EHAM) |
| Time | Latitude | Longitude | Altitude | Speed | Heading |
|---|---|---|---|---|---|
| 2026-05-04 05:55 | 25.27850 | 51.61145 | 26 ft | 0 kts | 248° |
| 2026-05-04 06:09 | 25.27857 | 51.61164 | 30 ft | 4 kts | 248° |
| 2026-05-04 06:09 | 25.27865 | 51.61188 | 32 ft | 3 kts | 247° |
| 2026-05-04 06:11 | 25.27948 | 51.61216 | 32 ft | 0 kts | 158° |
| 2026-05-04 06:15 | 25.27944 | 51.61217 | 32 ft | 2 kts | 158° |
| 2026-05-04 06:16 | 25.27921 | 51.61228 | 31 ft | 5 kts | 158° |
| 2026-05-04 06:16 | 25.27876 | 51.61248 | 30 ft | 9 kts | 158° |
| 2026-05-04 06:16 | 25.27849 | 51.61308 | 29 ft | 11 kts | 83° |
| 2026-05-04 06:16 | 25.27878 | 51.61396 | 30 ft | 14 kts | 69° |
| 2026-05-04 06:17 | 25.27831 | 51.61481 | 29 ft | 16 kts | 153° |
| 2026-05-04 06:17 | 25.27723 | 51.61529 | 32 ft | 18 kts | 159° |
| 2026-05-04 06:17 | 25.27609 | 51.61578 | 32 ft | 18 kts | 158° |
| 2026-05-04 06:17 | 25.27496 | 51.61629 | 26 ft | 18 kts | 158° |
| 2026-05-04 06:18 | 25.27383 | 51.61679 | 27 ft | 18 kts | 158° |
| 2026-05-04 06:18 | 25.27270 | 51.61730 | 28 ft | 18 kts | 158° |
| 2026-05-04 06:18 | 25.27157 | 51.61780 | 32 ft | 18 kts | 158° |
| 2026-05-04 06:20 | 25.26331 | 51.62144 | 27 ft | 21 kts | 158° |
| 2026-05-04 06:20 | 25.26190 | 51.62207 | 27 ft | 22 kts | 158° |
| 2026-05-04 06:21 | 25.25610 | 51.62463 | 30 ft | 17 kts | 159° |
| 2026-05-04 06:21 | 25.25530 | 51.62503 | 26 ft | 11 kts | 144° |
| 2026-05-04 06:22 | 25.25514 | 51.62584 | 26 ft | 12 kts | 70° |
| 2026-05-04 06:22 | 25.25564 | 51.62653 | 27 ft | 12 kts | 37° |
| 2026-05-04 06:25 | 25.39434 | 51.61852 | 3412 ft | 250 kts | 6° |
| 2026-05-04 06:25 | 25.41106 | 51.62488 | 3786 ft | 263 kts | 31° |
| 2026-05-04 06:26 | 25.42395 | 51.63959 | 3993 ft | 277 kts | 56° |
| 2026-05-04 06:26 | 25.42985 | 51.65999 | 4002 ft | 284 kts | 82° |
| 2026-05-04 06:26 | 25.42957 | 51.68201 | 4009 ft | 287 kts | 91° |
| 2026-05-04 06:26 | 25.42785 | 51.70405 | 4001 ft | 288 kts | 92° |
| 2026-05-04 06:27 | 25.41953 | 51.79186 | 4249 ft | 286 kts | 92° |
| 2026-05-04 06:28 | 25.41727 | 51.81382 | 4830 ft | 288 kts | 96° |
| 2026-05-04 06:28 | 25.41018 | 51.83480 | 5287 ft | 299 kts | 123° |
| 2026-05-04 06:28 | 25.39680 | 51.85247 | 5856 ft | 301 kts | 131° |
| 2026-05-04 06:28 | 25.38227 | 51.86926 | 6431 ft | 303 kts | 132° |
| 2026-05-04 06:29 | 25.36761 | 51.88589 | 7065 ft | 302 kts | 132° |
| 2026-05-04 06:29 | 25.35154 | 51.90074 | 7514 ft | 306 kts | 154° |
| 2026-05-04 06:29 | 25.33084 | 51.90573 | 7918 ft | 308 kts | 188° |
| 2026-05-04 06:29 | 25.31098 | 51.89848 | 8452 ft | 300 kts | 217° |
| 2026-05-04 06:30 | 25.29342 | 51.88600 | 8926 ft | 302 kts | 213° |
| 2026-05-04 06:30 | 25.27519 | 51.87481 | 9444 ft | 306 kts | 210° |
| 2026-05-04 06:30 | 25.25613 | 51.86429 | 10057 ft | 306 kts | 209° |
| 2026-05-04 06:30 | 25.23682 | 51.85391 | 10453 ft | 315 kts | 208° |
| 2026-05-04 06:31 | 25.21652 | 51.84299 | 10572 ft | 334 kts | 208° |
| 2026-05-04 06:31 | 25.19514 | 51.83144 | 10716 ft | 352 kts | 208° |
| 2026-05-04 06:31 | 25.17258 | 51.81923 | 10851 ft | 370 kts | 208° |
| 2026-05-04 06:31 | 25.14902 | 51.80644 | 11047 ft | 384 kts | 208° |
| 2026-05-04 06:32 | 25.12471 | 51.79326 | 11459 ft | 392 kts | 208° |
| 2026-05-04 06:33 | 24.94988 | 51.69835 | 15392 ft | 409 kts | 208° |
| 2026-05-04 06:34 | 24.92429 | 51.68447 | 15903 ft | 411 kts | 208° |
| 2026-05-04 06:34 | 24.89857 | 51.67052 | 16408 ft | 414 kts | 208° |
| 2026-05-04 06:34 | 24.87261 | 51.65645 | 16925 ft | 416 kts | 208° |
| 2026-05-04 06:34 | 24.84656 | 51.64234 | 17403 ft | 419 kts | 208° |
| 2026-05-04 06:35 | 24.82033 | 51.62814 | 17848 ft | 421 kts | 208° |
| 2026-05-04 06:36 | 24.62825 | 51.54883 | 17864 ft | 425 kts | 193° |
| 2026-05-04 06:37 | 24.59923 | 51.54221 | 17862 ft | 426 kts | 193° |
| 2026-05-04 06:37 | 24.57024 | 51.53552 | 17860 ft | 426 kts | 193° |
| 2026-05-04 06:37 | 24.54122 | 51.52875 | 17864 ft | 426 kts | 193° |
| 2026-05-04 06:37 | 24.51225 | 51.52194 | 17863 ft | 426 kts | 193° |
| 2026-05-04 06:38 | 24.48325 | 51.51509 | 17865 ft | 426 kts | 193° |
| 2026-05-04 06:38 | 24.45434 | 51.50825 | 17866 ft | 425 kts | 193° |
| 2026-05-04 06:40 | 24.25223 | 51.46054 | 17868 ft | 424 kts | 193° |
| 2026-05-04 06:40 | 24.22328 | 51.45436 | 17871 ft | 424 kts | 189° |
| 2026-05-04 06:40 | 24.19391 | 51.45132 | 17868 ft | 425 kts | 182° |
| 2026-05-04 06:40 | 24.16473 | 51.45135 | 17871 ft | 425 kts | 180° |
| 2026-05-04 06:41 | 24.13520 | 51.45166 | 17873 ft | 425 kts | 180° |
| 2026-05-04 06:41 | 24.10563 | 51.45197 | 17875 ft | 425 kts | 180° |
| 2026-05-04 06:41 | 24.07605 | 51.45221 | 17866 ft | 425 kts | 181° |
| 2026-05-04 06:41 | 24.04647 | 51.45240 | 17871 ft | 425 kts | 181° |
| 2026-05-04 06:42 | 24.01690 | 51.45253 | 17874 ft | 425 kts | 181° |
| 2026-05-04 06:42 | 23.98726 | 51.45263 | 17871 ft | 426 kts | 181° |
| 2026-05-04 06:42 | 23.95766 | 51.45271 | 17872 ft | 426 kts | 181° |
| 2026-05-04 06:44 | 23.75025 | 51.45327 | 17869 ft | 426 kts | 181° |
| 2026-05-04 06:44 | 23.72061 | 51.45334 | 17869 ft | 426 kts | 181° |
| 2026-05-04 06:44 | 23.69102 | 51.45342 | 17867 ft | 426 kts | 180° |
| 2026-05-04 06:45 | 23.66141 | 51.45350 | 17870 ft | 425 kts | 180° |
| 2026-05-04 06:45 | 23.63178 | 51.45359 | 17870 ft | 425 kts | 180° |
| 2026-05-04 06:45 | 23.60218 | 51.45367 | 17870 ft | 426 kts | 180° |
| 2026-05-04 06:45 | 23.57257 | 51.45375 | 17870 ft | 425 kts | 180° |
| 2026-05-04 06:46 | 23.54295 | 51.45383 | 17868 ft | 425 kts | 180° |
| 2026-05-04 06:46 | 23.51336 | 51.45391 | 17868 ft | 425 kts | 180° |
| 2026-05-04 06:46 | 23.48380 | 51.45399 | 17871 ft | 425 kts | 180° |
| 2026-05-04 06:46 | 23.45417 | 51.45422 | 17869 ft | 425 kts | 180° |
| 2026-05-04 06:48 | 23.24683 | 51.45770 | 17870 ft | 426 kts | 179° |
| 2026-05-04 06:48 | 23.21720 | 51.45817 | 17870 ft | 426 kts | 179° |
| 2026-05-04 06:49 | 23.18749 | 51.45864 | 17867 ft | 427 kts | 179° |
| 2026-05-04 06:50 | 22.97959 | 51.46188 | 17869 ft | 427 kts | 179° |
| 2026-05-04 06:51 | 22.95026 | 51.46233 | 17872 ft | 427 kts | 179° |
| 2026-05-04 06:51 | 22.92110 | 51.45958 | 17856 ft | 422 kts | 196° |
| 2026-05-04 06:51 | 22.89444 | 51.44658 | 17877 ft | 422 kts | 215° |
| 2026-05-04 06:51 | 22.87287 | 51.42515 | 17881 ft | 423 kts | 232° |
| 2026-05-04 06:52 | 22.85794 | 51.39778 | 17880 ft | 424 kts | 248° |
| 2026-05-04 06:52 | 22.85001 | 51.36705 | 18020 ft | 427 kts | 264° |
| 2026-05-04 06:52 | 22.85018 | 51.33483 | 18381 ft | 428 kts | 275° |
| 2026-05-04 06:52 | 22.85287 | 51.30254 | 18752 ft | 431 kts | 275° |
| 2026-05-04 06:53 | 22.85573 | 51.27017 | 19229 ft | 432 kts | 275° |
| 2026-05-04 06:53 | 22.85838 | 51.23768 | 19681 ft | 433 kts | 275° |
| 2026-05-04 06:53 | 22.86081 | 51.20502 | 20089 ft | 436 kts | 274° |
| 2026-05-04 06:53 | 22.86307 | 51.17214 | 20488 ft | 439 kts | 274° |
| 2026-05-04 06:54 | 22.86528 | 51.13911 | 20915 ft | 441 kts | 274° |
| 2026-05-04 06:54 | 22.86750 | 51.10593 | 21335 ft | 442 kts | 274° |
| 2026-05-04 06:54 | 22.86974 | 51.07253 | 21743 ft | 444 kts | 273° |
| 2026-05-04 06:54 | 22.87199 | 51.03900 | 22134 ft | 447 kts | 273° |
| 2026-05-04 06:55 | 22.87426 | 51.00531 | 22508 ft | 449 kts | 274° |
| 2026-05-04 06:55 | 22.87652 | 50.97150 | 22910 ft | 451 kts | 273° |
| 2026-05-04 06:55 | 22.87880 | 50.93740 | 23264 ft | 454 kts | 273° |
| 2026-05-04 06:55 | 22.88107 | 50.90319 | 23596 ft | 457 kts | 274° |
| 2026-05-04 06:56 | 22.88335 | 50.86875 | 23912 ft | 458 kts | 274° |
| 2026-05-04 06:57 | 22.89921 | 50.62606 | 26183 ft | 466 kts | 273° |
| 2026-05-04 06:58 | 22.90074 | 50.60237 | 26389 ft | 467 kts | 273° |
| 2026-05-04 06:58 | 22.90301 | 50.56718 | 26691 ft | 468 kts | 273° |
| 2026-05-04 06:58 | 22.90527 | 50.53190 | 26995 ft | 470 kts | 273° |
| 2026-05-04 06:58 | 22.90753 | 50.49648 | 27302 ft | 471 kts | 273° |
| 2026-05-04 06:59 | 22.90979 | 50.46102 | 27614 ft | 472 kts | 273° |
| 2026-05-04 06:59 | 22.91205 | 50.42542 | 27908 ft | 474 kts | 273° |
| 2026-05-04 06:59 | 22.91430 | 50.38972 | 28184 ft | 475 kts | 273° |
| 2026-05-04 06:59 | 22.91655 | 50.35394 | 28441 ft | 477 kts | 273° |
| 2026-05-04 07:01 | 22.93220 | 50.10211 | 30587 ft | 476 kts | 272° |
| 2026-05-04 07:01 | 22.93438 | 50.06638 | 30918 ft | 474 kts | 272° |
| 2026-05-04 07:02 | 22.93656 | 50.03074 | 31238 ft | 473 kts | 272° |
| 2026-05-04 07:02 | 22.93874 | 49.99472 | 31541 ft | 472 kts | 272° |
| 2026-05-04 07:02 | 22.94086 | 49.95972 | 31805 ft | 472 kts | 272° |
| 2026-05-04 07:02 | 22.94300 | 49.92408 | 31838 ft | 475 kts | 272° |
| 2026-05-04 07:03 | 22.94727 | 49.85285 | 31874 ft | 471 kts | 272° |
| 2026-05-04 07:03 | 22.95148 | 49.78216 | 31885 ft | 468 kts | 272° |
| 2026-05-04 07:04 | 22.95563 | 49.71183 | 31892 ft | 467 kts | 272° |
| 2026-05-04 07:04 | 22.95975 | 49.64154 | 31892 ft | 467 kts | 272° |
| 2026-05-04 07:05 | 22.96384 | 49.57117 | 31895 ft | 468 kts | 272° |
| 2026-05-04 07:05 | 22.96791 | 49.50060 | 31894 ft | 469 kts | 272° |
| 2026-05-04 07:06 | 22.97397 | 49.39448 | 31892 ft | 470 kts | 272° |
| 2026-05-04 07:07 | 22.97799 | 49.32356 | 31888 ft | 471 kts | 272° |
| 2026-05-04 07:09 | 22.99372 | 49.04000 | 31891 ft | 470 kts | 272° |
| 2026-05-04 07:09 | 22.99785 | 48.96932 | 31891 ft | 469 kts | 273° |
| 2026-05-04 07:10 | 23.00355 | 48.89883 | 31896 ft | 468 kts | 274° |
| 2026-05-04 07:12 | 23.02644 | 48.61794 | 31903 ft | 468 kts | 274° |
| 2026-05-04 07:12 | 23.03196 | 48.54758 | 31900 ft | 468 kts | 274° |
| 2026-05-04 07:13 | 23.03746 | 48.47725 | 31904 ft | 468 kts | 274° |
| 2026-05-04 07:13 | 23.04293 | 48.40688 | 31897 ft | 468 kts | 274° |
| 2026-05-04 07:14 | 23.05647 | 48.23095 | 31903 ft | 468 kts | 273° |
| 2026-05-04 07:15 | 23.06183 | 48.16052 | 31905 ft | 468 kts | 273° |
| 2026-05-04 07:15 | 23.06716 | 48.09014 | 31904 ft | 468 kts | 273° |
| 2026-05-04 07:16 | 23.07245 | 48.01982 | 31909 ft | 467 kts | 273° |
| 2026-05-04 07:16 | 23.07772 | 47.94949 | 31911 ft | 467 kts | 273° |
| 2026-05-04 07:17 | 23.08295 | 47.87918 | 31916 ft | 467 kts | 273° |
| 2026-05-04 07:17 | 23.09089 | 47.80954 | 31909 ft | 466 kts | 287° |
| 2026-05-04 07:18 | 23.10489 | 47.77764 | 31928 ft | 471 kts | 301° |
| 2026-05-04 07:18 | 23.12510 | 47.74947 | 31926 ft | 476 kts | 311° |
| 2026-05-04 07:18 | 23.15081 | 47.72653 | 31920 ft | 482 kts | 323° |
| 2026-05-04 07:18 | 23.17938 | 47.70740 | 31934 ft | 484 kts | 325° |
| 2026-05-04 07:19 | 23.23747 | 47.67004 | 31933 ft | 486 kts | 325° |
| 2026-05-04 07:19 | 23.29528 | 47.63174 | 31939 ft | 487 kts | 324° |
| 2026-05-04 07:20 | 23.35287 | 47.59265 | 31940 ft | 488 kts | 324° |
| 2026-05-04 07:20 | 23.41048 | 47.55341 | 31939 ft | 488 kts | 324° |
| 2026-05-04 07:22 | 23.64012 | 47.39755 | 31950 ft | 484 kts | 324° |
| 2026-05-04 07:23 | 23.69721 | 47.35873 | 31954 ft | 483 kts | 324° |
| 2026-05-04 07:23 | 23.75417 | 47.31995 | 31955 ft | 482 kts | 323° |
| 2026-05-04 07:24 | 23.81071 | 47.28141 | 31960 ft | 482 kts | 323° |
| 2026-05-04 07:24 | 23.86759 | 47.24261 | 31961 ft | 482 kts | 323° |
| 2026-05-04 07:26 | 24.09509 | 47.08701 | 31962 ft | 482 kts | 323° |
| 2026-05-04 07:27 | 24.15519 | 47.05369 | 31983 ft | 487 kts | 332° |
| 2026-05-04 07:27 | 24.21784 | 47.02514 | 31966 ft | 488 kts | 332° |
| 2026-05-04 07:28 | 24.28048 | 46.99655 | 31971 ft | 488 kts | 332° |
| 2026-05-04 07:28 | 24.34298 | 46.96759 | 31976 ft | 488 kts | 332° |
| 2026-05-04 07:29 | 24.40550 | 46.93842 | 31976 ft | 488 kts | 332° |
| 2026-05-04 07:29 | 24.46768 | 46.90937 | 31977 ft | 489 kts | 332° |
| 2026-05-04 07:30 | 24.53065 | 46.87994 | 31979 ft | 489 kts | 332° |
| 2026-05-04 07:30 | 24.59327 | 46.85065 | 31988 ft | 489 kts | 331° |
| 2026-05-04 07:31 | 24.65584 | 46.82134 | 31991 ft | 489 kts | 331° |
| 2026-05-04 07:33 | 24.90580 | 46.70396 | 32024 ft | 489 kts | 331° |
| 2026-05-04 07:33 | 24.96672 | 46.67156 | 32018 ft | 482 kts | 322° |
| 2026-05-04 07:34 | 25.02054 | 46.62882 | 32021 ft | 473 kts | 313° |
| 2026-05-04 07:34 | 25.06862 | 46.57969 | 32019 ft | 471 kts | 311° |
| 2026-05-04 07:35 | 25.11640 | 46.53016 | 32013 ft | 471 kts | 311° |
| 2026-05-04 07:35 | 25.16431 | 46.48085 | 32007 ft | 471 kts | 311° |
| 2026-05-04 07:36 | 25.21236 | 46.43164 | 31997 ft | 471 kts | 311° |
| 2026-05-04 07:38 | 25.40403 | 46.23491 | 31977 ft | 469 kts | 311° |
| 2026-05-04 07:38 | 25.45177 | 46.18576 | 31995 ft | 469 kts | 311° |
| 2026-05-04 07:39 | 25.49948 | 46.13659 | 31986 ft | 468 kts | 311° |
| 2026-05-04 07:39 | 25.54714 | 46.08739 | 31980 ft | 468 kts | 311° |
| 2026-05-04 07:40 | 25.59472 | 46.03823 | 31977 ft | 468 kts | 311° |
| 2026-05-04 07:40 | 25.64236 | 45.98898 | 31976 ft | 468 kts | 311° |
| 2026-05-04 07:41 | 25.68993 | 45.93977 | 31974 ft | 468 kts | 311° |
| 2026-05-04 07:41 | 25.73749 | 45.89050 | 31975 ft | 468 kts | 310° |
| 2026-05-04 07:42 | 25.78502 | 45.84120 | 31973 ft | 468 kts | 310° |
| 2026-05-04 07:42 | 25.83252 | 45.79187 | 31973 ft | 467 kts | 310° |
| 2026-05-04 07:43 | 25.87992 | 45.74260 | 31973 ft | 467 kts | 310° |
| 2026-05-04 07:43 | 25.91931 | 45.70166 | 31972 ft | 466 kts | 310° |
| 2026-05-04 07:44 | 25.97430 | 45.64444 | 31967 ft | 466 kts | 310° |
| 2026-05-04 07:44 | 26.01390 | 45.60317 | 31970 ft | 465 kts | 310° |
| 2026-05-04 07:45 | 26.06107 | 45.55395 | 31968 ft | 465 kts | 310° |
| 2026-05-04 07:45 | 26.10826 | 45.50465 | 31967 ft | 465 kts | 310° |
| 2026-05-04 07:46 | 26.15501 | 45.45576 | 31973 ft | 465 kts | 310° |
| 2026-05-04 07:46 | 26.20239 | 45.40609 | 31977 ft | 464 kts | 310° |
| 2026-05-04 07:47 | 26.24896 | 45.35704 | 31972 ft | 464 kts | 310° |
| 2026-05-04 07:49 | 26.43640 | 45.16003 | 31983 ft | 462 kts | 310° |
| 2026-05-04 07:49 | 26.48313 | 45.11085 | 31984 ft | 462 kts | 309° |
| 2026-05-04 07:50 | 26.52987 | 45.06159 | 31982 ft | 462 kts | 309° |
| 2026-05-04 07:50 | 26.57656 | 45.01233 | 31986 ft | 462 kts | 309° |
| 2026-05-04 07:51 | 26.62326 | 44.96305 | 31990 ft | 462 kts | 309° |
| 2026-05-04 07:51 | 26.67001 | 44.91372 | 31983 ft | 462 kts | 309° |
| 2026-05-04 07:52 | 26.71677 | 44.86430 | 31991 ft | 462 kts | 309° |
| 2026-05-04 07:52 | 26.76350 | 44.81485 | 31981 ft | 463 kts | 309° |
| 2026-05-04 07:54 | 26.95012 | 44.61594 | 31962 ft | 463 kts | 309° |
| 2026-05-04 07:55 | 26.99675 | 44.56609 | 31961 ft | 463 kts | 309° |
| 2026-05-04 07:55 | 27.04340 | 44.51632 | 31961 ft | 463 kts | 309° |
| 2026-05-04 07:56 | 27.08998 | 44.46662 | 31955 ft | 462 kts | 309° |
| 2026-05-04 07:56 | 27.13647 | 44.41691 | 31957 ft | 461 kts | 309° |
| 2026-05-04 07:57 | 27.18259 | 44.36756 | 31948 ft | 460 kts | 309° |
| 2026-05-04 07:57 | 27.22883 | 44.31798 | 31947 ft | 459 kts | 309° |
| 2026-05-04 07:58 | 27.27499 | 44.26840 | 31949 ft | 459 kts | 308° |
| 2026-05-04 07:58 | 27.32110 | 44.21880 | 31946 ft | 459 kts | 308° |
| 2026-05-04 07:59 | 27.36718 | 44.16917 | 31953 ft | 458 kts | 308° |
| 2026-05-04 07:59 | 27.41318 | 44.11957 | 31953 ft | 458 kts | 308° |
| 2026-05-04 08:00 | 27.45913 | 44.06998 | 31954 ft | 458 kts | 308° |
| 2026-05-04 08:02 | 27.64261 | 43.87132 | 31956 ft | 457 kts | 308° |
| 2026-05-04 08:02 | 27.68840 | 43.82158 | 31958 ft | 457 kts | 308° |
| 2026-05-04 08:03 | 27.73412 | 43.77187 | 31970 ft | 456 kts | 308° |
| 2026-05-04 08:03 | 27.77983 | 43.72209 | 31967 ft | 457 kts | 308° |
| 2026-05-04 08:04 | 27.82554 | 43.67226 | 31956 ft | 457 kts | 308° |
| 2026-05-04 08:04 | 27.87063 | 43.62191 | 31951 ft | 454 kts | 306° |
| 2026-05-04 08:05 | 27.91367 | 43.56974 | 31951 ft | 453 kts | 304° |
| 2026-05-04 08:05 | 27.95610 | 43.51775 | 31961 ft | 453 kts | 304° |
| 2026-05-04 08:06 | 27.99905 | 43.46562 | 31970 ft | 453 kts | 305° |
| 2026-05-04 08:06 | 28.04216 | 43.41352 | 31973 ft | 454 kts | 305° |
| 2026-05-04 08:08 | 28.21451 | 43.20486 | 31984 ft | 452 kts | 304° |
| 2026-05-04 08:11 | 28.40749 | 42.96988 | 31990 ft | 452 kts | 304° |
| 2026-05-04 08:11 | 28.47171 | 42.89138 | 31994 ft | 452 kts | 304° |
| 2026-05-04 08:12 | 28.51447 | 42.83903 | 31997 ft | 452 kts | 304° |
| 2026-05-04 08:12 | 28.55722 | 42.78662 | 32001 ft | 452 kts | 304° |
| 2026-05-04 08:13 | 28.59970 | 42.73447 | 32005 ft | 452 kts | 304° |
| 2026-05-04 08:13 | 28.64241 | 42.68199 | 32006 ft | 452 kts | 304° |
| 2026-05-04 08:14 | 28.68503 | 42.62947 | 32002 ft | 451 kts | 304° |
| 2026-05-04 08:16 | 28.85494 | 42.41912 | 32013 ft | 450 kts | 304° |
| 2026-05-04 08:16 | 28.89731 | 42.36651 | 32011 ft | 450 kts | 303° |
| 2026-05-04 08:17 | 28.93959 | 42.31393 | 32026 ft | 449 kts | 303° |
| 2026-05-04 08:17 | 28.98182 | 42.26133 | 32021 ft | 449 kts | 303° |
| 2026-05-04 08:19 | 29.15087 | 42.05034 | 32031 ft | 451 kts | 304° |
| 2026-05-04 08:20 | 29.19325 | 41.99729 | 32026 ft | 452 kts | 304° |
| 2026-05-04 08:20 | 29.23568 | 41.94410 | 32033 ft | 453 kts | 304° |
| 2026-05-04 08:21 | 29.27816 | 41.89079 | 32032 ft | 453 kts | 304° |
| 2026-05-04 08:21 | 29.32035 | 41.83777 | 32035 ft | 454 kts | 304° |
| 2026-05-04 08:22 | 29.36284 | 41.78429 | 32035 ft | 454 kts | 304° |
| 2026-05-04 08:24 | 29.53285 | 41.56963 | 32044 ft | 454 kts | 303° |
| 2026-05-04 08:24 | 29.57529 | 41.51587 | 32046 ft | 454 kts | 303° |
| 2026-05-04 08:25 | 29.61769 | 41.46207 | 32049 ft | 454 kts | 303° |
| 2026-05-04 08:25 | 29.66008 | 41.40821 | 32035 ft | 454 kts | 303° |
| 2026-05-04 08:27 | 29.84123 | 41.20304 | 32048 ft | 460 kts | 309° |
| 2026-05-04 08:28 | 29.88909 | 41.15418 | 32049 ft | 459 kts | 309° |
| 2026-05-04 08:28 | 29.93679 | 41.10519 | 32052 ft | 459 kts | 309° |
| 2026-05-04 08:29 | 29.98434 | 41.05621 | 32047 ft | 458 kts | 309° |
| 2026-05-04 08:31 | 30.17357 | 40.86075 | 32043 ft | 457 kts | 309° |
| 2026-05-04 08:33 | 30.36251 | 40.66454 | 32050 ft | 456 kts | 309° |
| 2026-05-04 08:35 | 30.54484 | 40.47745 | 32065 ft | 457 kts | 309° |
| 2026-05-04 08:35 | 30.59241 | 40.42860 | 32039 ft | 456 kts | 309° |
| 2026-05-04 08:37 | 30.75850 | 40.25750 | 32046 ft | 456 kts | 309° |
| 2026-05-04 08:38 | 30.80589 | 40.20853 | 32047 ft | 456 kts | 309° |
| 2026-05-04 08:38 | 30.85327 | 40.15950 | 32046 ft | 456 kts | 309° |
| 2026-05-04 08:40 | 31.04256 | 39.96295 | 32041 ft | 456 kts | 308° |
| 2026-05-04 08:41 | 31.08984 | 39.91369 | 32042 ft | 456 kts | 308° |
| 2026-05-04 08:41 | 31.13706 | 39.86441 | 32042 ft | 455 kts | 308° |
| 2026-05-04 08:42 | 31.18429 | 39.81507 | 32041 ft | 455 kts | 308° |
| 2026-05-04 08:42 | 31.23143 | 39.76574 | 32040 ft | 455 kts | 308° |
| 2026-05-04 08:43 | 31.27854 | 39.71638 | 32037 ft | 455 kts | 308° |
| 2026-05-04 08:43 | 31.32560 | 39.66700 | 32040 ft | 454 kts | 308° |
| 2026-05-04 08:44 | 31.37225 | 39.61797 | 32039 ft | 454 kts | 308° |
| 2026-05-04 08:46 | 31.55927 | 39.42037 | 32034 ft | 452 kts | 307° |
| 2026-05-04 08:46 | 31.60584 | 39.37092 | 32036 ft | 451 kts | 307° |
| 2026-05-04 08:47 | 31.65236 | 39.32146 | 32031 ft | 451 kts | 307° |
| 2026-05-04 08:47 | 31.69887 | 39.27194 | 32035 ft | 451 kts | 307° |
| 2026-05-04 08:48 | 31.74531 | 39.22243 | 32038 ft | 451 kts | 307° |
| 2026-05-04 08:48 | 31.79317 | 39.17421 | 32035 ft | 460 kts | 313° |
| 2026-05-04 08:49 | 31.84844 | 39.13424 | 32041 ft | 475 kts | 322° |
| 2026-05-04 08:50 | 32.05587 | 39.01279 | 32039 ft | 476 kts | 322° |
| 2026-05-04 08:51 | 32.11476 | 38.97812 | 32036 ft | 477 kts | 322° |
| 2026-05-04 08:51 | 32.17412 | 38.94316 | 32038 ft | 477 kts | 321° |
| 2026-05-04 08:52 | 32.23348 | 38.90811 | 32042 ft | 478 kts | 321° |
| 2026-05-04 08:52 | 32.29299 | 38.87291 | 32044 ft | 478 kts | 321° |
| 2026-05-04 08:54 | 32.53119 | 38.73146 | 32026 ft | 480 kts | 321° |
| 2026-05-04 08:55 | 32.59084 | 38.69591 | 32023 ft | 480 kts | 321° |
| 2026-05-04 08:55 | 32.65046 | 38.66036 | 32017 ft | 480 kts | 321° |
| 2026-05-04 09:01 | 33.27521 | 38.28404 | 32009 ft | 479 kts | 321° |
| 2026-05-04 09:01 | 33.33468 | 38.24772 | 32005 ft | 480 kts | 321° |
| 2026-05-04 09:02 | 33.39414 | 38.21133 | 31994 ft | 480 kts | 321° |
| 2026-05-04 09:02 | 33.45359 | 38.17489 | 31990 ft | 480 kts | 321° |
| 2026-05-04 09:03 | 33.51322 | 38.13860 | 31988 ft | 481 kts | 321° |
| 2026-05-04 09:03 | 33.57291 | 38.10246 | 31981 ft | 481 kts | 321° |
| 2026-05-04 09:04 | 33.63256 | 38.06623 | 31981 ft | 481 kts | 321° |
| 2026-05-04 09:04 | 33.69181 | 38.03014 | 31987 ft | 481 kts | 321° |
| 2026-05-04 09:05 | 33.75139 | 37.99377 | 31996 ft | 482 kts | 321° |
| 2026-05-04 09:05 | 33.78145 | 37.97539 | 32201 ft | 484 kts | 321° |
| 2026-05-04 09:05 | 33.81140 | 37.95710 | 32595 ft | 482 kts | 321° |
| 2026-05-04 09:05 | 33.84055 | 37.93791 | 32992 ft | 470 kts | 315° |
| 2026-05-04 09:06 | 33.86583 | 37.91435 | 33374 ft | 452 kts | 306° |
| 2026-05-04 09:07 | 33.98465 | 37.70473 | 33951 ft | 430 kts | 292° |
| 2026-05-04 09:08 | 34.00051 | 37.67424 | 33952 ft | 429 kts | 292° |
| 2026-05-04 09:08 | 34.03213 | 37.61347 | 33932 ft | 427 kts | 292° |
| 2026-05-04 09:09 | 34.06362 | 37.55288 | 33948 ft | 427 kts | 292° |
| 2026-05-04 09:09 | 34.09516 | 37.49209 | 33949 ft | 428 kts | 291° |
| 2026-05-04 09:10 | 34.12684 | 37.43086 | 33940 ft | 432 kts | 292° |
| 2026-05-04 09:10 | 34.15870 | 37.36927 | 33945 ft | 433 kts | 292° |
| 2026-05-04 09:11 | 34.19063 | 37.30743 | 33944 ft | 435 kts | 292° |
| 2026-05-04 09:11 | 34.22609 | 37.24721 | 33946 ft | 447 kts | 300° |
| 2026-05-04 09:12 | 34.26927 | 37.19199 | 33929 ft | 453 kts | 303° |
| 2026-05-04 09:14 | 34.44331 | 36.97227 | 33916 ft | 450 kts | 303° |
| 2026-05-04 09:14 | 34.48645 | 36.91731 | 33922 ft | 450 kts | 303° |
| 2026-05-04 09:15 | 34.52933 | 36.86261 | 33926 ft | 451 kts | 303° |
| 2026-05-04 09:15 | 34.57251 | 36.80743 | 33922 ft | 451 kts | 303° |
| 2026-05-04 09:17 | 34.76773 | 36.55682 | 33931 ft | 457 kts | 304° |
| 2026-05-04 09:18 | 34.81140 | 36.50045 | 33930 ft | 459 kts | 304° |
| 2026-05-04 09:18 | 34.85516 | 36.44387 | 33935 ft | 460 kts | 304° |
| 2026-05-04 09:19 | 34.89907 | 36.38702 | 33935 ft | 461 kts | 304° |
| 2026-05-04 09:19 | 34.94308 | 36.32994 | 33933 ft | 462 kts | 304° |
| 2026-05-04 09:20 | 34.98711 | 36.27275 | 33937 ft | 463 kts | 305° |
| 2026-05-04 09:20 | 35.02370 | 36.22513 | 33927 ft | 463 kts | 305° |
| 2026-05-04 09:21 | 35.07511 | 36.15814 | 33933 ft | 462 kts | 305° |
| 2026-05-04 09:21 | 35.11158 | 36.11050 | 33942 ft | 461 kts | 305° |
| 2026-05-04 09:22 | 35.15537 | 36.05322 | 33943 ft | 461 kts | 305° |
| 2026-05-04 09:22 | 35.19810 | 35.99523 | 33901 ft | 450 kts | 295° |
| 2026-05-04 09:23 | 35.21152 | 35.96177 | 33927 ft | 433 kts | 281° |
| 2026-05-04 09:23 | 35.21800 | 35.92621 | 33931 ft | 427 kts | 272° |
| 2026-05-04 09:23 | 35.21909 | 35.89007 | 33915 ft | 424 kts | 260° |
| 2026-05-04 09:23 | 35.21389 | 35.85485 | 33935 ft | 422 kts | 256° |
| 2026-05-04 09:25 | 35.23958 | 35.60603 | 33895 ft | 445 kts | 292° |
| 2026-05-04 09:25 | 35.25447 | 35.57273 | 33888 ft | 446 kts | 292° |
| 2026-05-04 09:26 | 35.28424 | 35.50605 | 33877 ft | 447 kts | 292° |
| 2026-05-04 09:26 | 35.31365 | 35.43895 | 33877 ft | 448 kts | 292° |
| 2026-05-04 09:27 | 35.34287 | 35.37144 | 33867 ft | 450 kts | 292° |
| 2026-05-04 09:27 | 35.37211 | 35.30357 | 33863 ft | 451 kts | 292° |
| 2026-05-04 09:28 | 35.40141 | 35.23542 | 33853 ft | 452 kts | 292° |
| 2026-05-04 09:28 | 35.43074 | 35.16710 | 33852 ft | 453 kts | 292° |
| 2026-05-04 09:29 | 35.45990 | 35.09904 | 33851 ft | 454 kts | 292° |
| 2026-05-04 09:29 | 35.48923 | 35.03048 | 33836 ft | 454 kts | 292° |
| 2026-05-04 09:30 | 35.51853 | 34.96181 | 33839 ft | 454 kts | 292° |
| 2026-05-04 09:30 | 35.54782 | 34.89303 | 33827 ft | 455 kts | 292° |
| 2026-05-04 09:31 | 35.57708 | 34.82419 | 33830 ft | 455 kts | 292° |
| 2026-05-04 09:31 | 35.60630 | 34.75529 | 33827 ft | 455 kts | 292° |
| 2026-05-04 09:32 | 35.63549 | 34.68630 | 33826 ft | 455 kts | 293° |
| 2026-05-04 09:34 | 35.75215 | 34.40921 | 33821 ft | 458 kts | 293° |
| 2026-05-04 09:34 | 35.78135 | 34.33948 | 33821 ft | 458 kts | 293° |
| 2026-05-04 09:35 | 35.81056 | 34.26959 | 33817 ft | 459 kts | 293° |
| 2026-05-04 09:35 | 35.83975 | 34.19959 | 33818 ft | 460 kts | 294° |
| 2026-05-04 09:37 | 35.96678 | 33.97562 | 33812 ft | 473 kts | 322° |
| 2026-05-04 09:37 | 35.99481 | 33.95420 | 33818 ft | 474 kts | 324° |
| 2026-05-04 09:38 | 36.05149 | 33.91268 | 33811 ft | 473 kts | 324° |
| 2026-05-04 09:38 | 36.10785 | 33.87067 | 33809 ft | 472 kts | 324° |
| 2026-05-04 09:39 | 36.16377 | 33.82818 | 33806 ft | 471 kts | 324° |
| 2026-05-04 09:39 | 36.21959 | 33.78560 | 33808 ft | 471 kts | 324° |
| 2026-05-04 09:40 | 36.27549 | 33.74298 | 33804 ft | 472 kts | 324° |
| 2026-05-04 09:40 | 36.33157 | 33.70028 | 33806 ft | 473 kts | 324° |
| 2026-05-04 09:42 | 36.55667 | 33.52820 | 33802 ft | 478 kts | 325° |
| 2026-05-04 09:43 | 36.61332 | 33.48469 | 33807 ft | 479 kts | 325° |
| 2026-05-04 09:43 | 36.67011 | 33.44100 | 33806 ft | 480 kts | 326° |
| 2026-05-04 09:44 | 36.72684 | 33.39729 | 33802 ft | 479 kts | 326° |
| 2026-05-04 09:46 | 36.93416 | 33.19666 | 33793 ft | 469 kts | 310° |
| 2026-05-04 09:46 | 36.97759 | 33.13667 | 33797 ft | 468 kts | 310° |
| 2026-05-04 09:47 | 37.02146 | 33.07643 | 33800 ft | 468 kts | 311° |
| 2026-05-04 09:49 | 37.19779 | 32.83483 | 33801 ft | 473 kts | 311° |
| 2026-05-04 09:51 | 37.35328 | 32.62027 | 33800 ft | 475 kts | 312° |
| 2026-05-04 09:51 | 37.39765 | 32.55879 | 33796 ft | 474 kts | 312° |
| 2026-05-04 09:52 | 37.44186 | 32.49741 | 33797 ft | 472 kts | 313° |
| 2026-05-04 09:52 | 37.48584 | 32.43623 | 33798 ft | 470 kts | 313° |
| 2026-05-04 09:53 | 37.52958 | 32.37526 | 33802 ft | 468 kts | 313° |
| 2026-05-04 09:53 | 37.57304 | 32.31457 | 33794 ft | 465 kts | 313° |
| 2026-05-04 09:54 | 37.61615 | 32.25427 | 33812 ft | 461 kts | 313° |
| 2026-05-04 09:54 | 37.65862 | 32.19475 | 33814 ft | 458 kts | 313° |
| 2026-05-04 09:55 | 37.70139 | 32.13476 | 33821 ft | 455 kts | 313° |
| 2026-05-04 09:55 | 37.74364 | 32.07540 | 33827 ft | 454 kts | 313° |
| 2026-05-04 09:56 | 37.78551 | 32.01647 | 33842 ft | 453 kts | 313° |
| 2026-05-04 09:56 | 37.82785 | 31.95674 | 33857 ft | 453 kts | 313° |
| 2026-05-04 09:57 | 37.86970 | 31.89762 | 33861 ft | 454 kts | 313° |
| 2026-05-04 09:57 | 37.91185 | 31.83793 | 33866 ft | 455 kts | 313° |
| 2026-05-04 09:58 | 37.95404 | 31.77808 | 33871 ft | 455 kts | 313° |
| 2026-05-04 09:58 | 37.99621 | 31.71815 | 33881 ft | 456 kts | 313° |
| 2026-05-04 10:00 | 38.16449 | 31.47784 | 33892 ft | 455 kts | 313° |
| 2026-05-04 10:04 | 38.45784 | 31.05421 | 33928 ft | 459 kts | 313° |
| 2026-05-04 10:04 | 38.50429 | 30.99873 | 33921 ft | 457 kts | 323° |
| 2026-05-04 10:05 | 38.55638 | 30.95231 | 33922 ft | 457 kts | 326° |
| 2026-05-04 10:05 | 38.60901 | 30.90636 | 33926 ft | 458 kts | 326° |
| 2026-05-04 10:06 | 38.66157 | 30.85991 | 33925 ft | 460 kts | 326° |
| 2026-05-04 10:06 | 38.71415 | 30.81311 | 33942 ft | 462 kts | 326° |
| 2026-05-04 10:08 | 38.89312 | 30.66214 | 33948 ft | 462 kts | 334° |
| 2026-05-04 10:08 | 38.96052 | 30.61904 | 33952 ft | 464 kts | 334° |
| 2026-05-04 10:09 | 39.00857 | 30.58815 | 33956 ft | 464 kts | 334° |
| 2026-05-04 10:09 | 39.06627 | 30.55065 | 33950 ft | 465 kts | 334° |
| 2026-05-04 10:10 | 39.12403 | 30.51287 | 33966 ft | 465 kts | 334° |
| 2026-05-04 10:10 | 39.18175 | 30.47504 | 33958 ft | 466 kts | 334° |
| 2026-05-04 10:11 | 39.23949 | 30.43716 | 33978 ft | 466 kts | 334° |
| 2026-05-04 10:11 | 39.29733 | 30.39914 | 33973 ft | 467 kts | 334° |
| 2026-05-04 10:12 | 39.35518 | 30.36104 | 33986 ft | 467 kts | 334° |
| 2026-05-04 10:12 | 39.41300 | 30.32289 | 33974 ft | 465 kts | 334° |
| 2026-05-04 10:13 | 39.47053 | 30.28486 | 33998 ft | 466 kts | 334° |
| 2026-05-04 10:13 | 39.52944 | 30.24891 | 33984 ft | 468 kts | 338° |
| 2026-05-04 10:14 | 39.58929 | 30.21732 | 33994 ft | 467 kts | 339° |
| 2026-05-04 10:16 | 39.80401 | 30.10307 | 34002 ft | 481 kts | 339° |
| 2026-05-04 10:16 | 39.83493 | 30.08645 | 34004 ft | 481 kts | 338° |
| 2026-05-04 10:16 | 39.89686 | 30.05312 | 34010 ft | 482 kts | 339° |
| 2026-05-04 10:17 | 39.95875 | 30.01978 | 34017 ft | 481 kts | 339° |
| 2026-05-04 10:19 | 40.20645 | 29.88543 | 34013 ft | 483 kts | 339° |
| 2026-05-04 10:19 | 40.26872 | 29.85148 | 33988 ft | 485 kts | 339° |
| 2026-05-04 10:20 | 40.33101 | 29.81745 | 34004 ft | 485 kts | 339° |
| 2026-05-04 10:20 | 40.39322 | 29.78339 | 33992 ft | 484 kts | 339° |
| 2026-05-04 10:21 | 40.45535 | 29.74930 | 34001 ft | 484 kts | 339° |
| 2026-05-04 10:21 | 40.51748 | 29.71516 | 33991 ft | 484 kts | 339° |
| 2026-05-04 10:22 | 40.61061 | 29.66385 | 33990 ft | 484 kts | 339° |
| 2026-05-04 10:23 | 40.67085 | 29.62392 | 34010 ft | 487 kts | 330° |
| 2026-05-04 10:25 | 40.88396 | 29.40122 | 34022 ft | 491 kts | 323° |
| 2026-05-04 10:25 | 40.93777 | 29.34432 | 34025 ft | 492 kts | 323° |
| 2026-05-04 10:26 | 40.99084 | 29.28804 | 34027 ft | 493 kts | 323° |
| 2026-05-04 10:26 | 41.04470 | 29.23077 | 34023 ft | 494 kts | 323° |
| 2026-05-04 10:27 | 41.09773 | 29.17382 | 34021 ft | 495 kts | 321° |
| 2026-05-04 10:27 | 41.14513 | 29.10733 | 34002 ft | 498 kts | 309° |
| 2026-05-04 10:28 | 41.18446 | 29.03086 | 34031 ft | 499 kts | 304° |
| 2026-05-04 10:28 | 41.22205 | 28.95402 | 34029 ft | 499 kts | 304° |
| 2026-05-04 10:29 | 41.26015 | 28.87685 | 34022 ft | 500 kts | 305° |
| 2026-05-04 10:29 | 41.29877 | 28.79921 | 34025 ft | 500 kts | 305° |
| 2026-05-04 10:30 | 41.33693 | 28.72245 | 34019 ft | 501 kts | 305° |
| 2026-05-04 10:30 | 41.37533 | 28.64495 | 34028 ft | 502 kts | 304° |
| 2026-05-04 10:31 | 41.41367 | 28.56731 | 34025 ft | 502 kts | 304° |
| 2026-05-04 10:32 | 41.54779 | 28.29431 | 34029 ft | 502 kts | 304° |
| 2026-05-04 10:33 | 41.58595 | 28.21623 | 34035 ft | 502 kts | 304° |
| 2026-05-04 10:33 | 41.62401 | 28.13812 | 34028 ft | 501 kts | 304° |
| 2026-05-04 10:34 | 41.66196 | 28.06006 | 34039 ft | 501 kts | 304° |
| 2026-05-04 10:34 | 41.69987 | 27.98185 | 34029 ft | 501 kts | 304° |
| 2026-05-04 10:35 | 41.73777 | 27.90348 | 34033 ft | 502 kts | 304° |
| 2026-05-04 10:35 | 41.77543 | 27.82539 | 34025 ft | 503 kts | 304° |
| 2026-05-04 10:36 | 41.81332 | 27.74663 | 34038 ft | 503 kts | 303° |
| 2026-05-04 10:36 | 41.85122 | 27.66765 | 34022 ft | 504 kts | 303° |
| 2026-05-04 10:37 | 41.88910 | 27.58850 | 34042 ft | 504 kts | 303° |
| 2026-05-04 10:37 | 41.92695 | 27.50920 | 34035 ft | 505 kts | 303° |
| 2026-05-04 10:39 | 42.05910 | 27.23067 | 34045 ft | 505 kts | 303° |
| 2026-05-04 10:40 | 42.09468 | 27.14921 | 34048 ft | 504 kts | 300° |
| 2026-05-04 10:40 | 42.12858 | 27.06648 | 34056 ft | 504 kts | 299° |
| 2026-05-04 10:41 | 42.16234 | 26.98368 | 34053 ft | 504 kts | 299° |
| 2026-05-04 10:41 | 42.19621 | 26.90107 | 34062 ft | 503 kts | 299° |
| 2026-05-04 10:42 | 42.23011 | 26.81851 | 34065 ft | 502 kts | 299° |
| 2026-05-04 10:42 | 42.26380 | 26.73632 | 34072 ft | 501 kts | 299° |
| 2026-05-04 10:43 | 42.29745 | 26.65394 | 34066 ft | 500 kts | 299° |
| 2026-05-04 10:45 | 42.43069 | 26.32538 | 34414 ft | 498 kts | 299° |
| 2026-05-04 10:45 | 42.44716 | 26.28447 | 34873 ft | 493 kts | 300° |
| 2026-05-04 10:45 | 42.46359 | 26.24364 | 35165 ft | 493 kts | 300° |
| 2026-05-04 10:45 | 42.47997 | 26.20287 | 35433 ft | 492 kts | 300° |
| 2026-05-04 10:46 | 42.49629 | 26.16219 | 35730 ft | 492 kts | 300° |
| 2026-05-04 10:46 | 42.51262 | 26.12147 | 35951 ft | 492 kts | 300° |
| 2026-05-04 10:46 | 42.52897 | 26.08062 | 36001 ft | 494 kts | 300° |
| 2026-05-04 10:47 | 42.56156 | 25.99898 | 36078 ft | 492 kts | 300° |
| 2026-05-04 10:47 | 42.59404 | 25.91741 | 36082 ft | 490 kts | 300° |
| 2026-05-04 10:49 | 42.72243 | 25.59265 | 36094 ft | 486 kts | 300° |
| 2026-05-04 10:50 | 42.75440 | 25.51121 | 36099 ft | 490 kts | 300° |
| 2026-05-04 10:52 | 42.88304 | 25.18118 | 36101 ft | 493 kts | 300° |
| 2026-05-04 10:52 | 42.91498 | 25.09858 | 36107 ft | 491 kts | 300° |
| 2026-05-04 10:54 | 43.04054 | 24.77178 | 36123 ft | 483 kts | 300° |
| 2026-05-04 10:56 | 43.15958 | 24.45842 | 36139 ft | 485 kts | 301° |
| 2026-05-04 10:57 | 43.19556 | 24.36300 | 36139 ft | 485 kts | 301° |
| 2026-05-04 10:57 | 43.22146 | 24.29412 | 36144 ft | 485 kts | 301° |
| 2026-05-04 10:58 | 43.25236 | 24.21173 | 36134 ft | 486 kts | 301° |
| 2026-05-04 10:58 | 43.28321 | 24.12922 | 36141 ft | 486 kts | 301° |
| 2026-05-04 10:59 | 43.31379 | 24.04719 | 36137 ft | 486 kts | 301° |
| 2026-05-04 10:59 | 43.34452 | 23.96454 | 36137 ft | 486 kts | 301° |
| 2026-05-04 11:00 | 43.37518 | 23.88181 | 36137 ft | 486 kts | 301° |
| 2026-05-04 11:02 | 43.49686 | 23.55109 | 36142 ft | 483 kts | 302° |
| 2026-05-04 11:05 | 43.72054 | 22.93266 | 36130 ft | 478 kts | 302° |
| 2026-05-04 11:06 | 43.74994 | 22.85033 | 36122 ft | 478 kts | 302° |
| 2026-05-04 11:06 | 43.77935 | 22.76773 | 36125 ft | 478 kts | 302° |
| 2026-05-04 11:10 | 44.01398 | 22.22619 | 36127 ft | 460 kts | 317° |
| 2026-05-04 11:12 | 44.17968 | 21.95666 | 36151 ft | 458 kts | 316° |
| 2026-05-04 11:12 | 44.22099 | 21.88885 | 36151 ft | 459 kts | 316° |
| 2026-05-04 11:13 | 44.26230 | 21.82092 | 36143 ft | 459 kts | 316° |
| 2026-05-04 11:13 | 44.30356 | 21.75290 | 36154 ft | 459 kts | 316° |
| 2026-05-04 11:14 | 44.34482 | 21.68472 | 36145 ft | 460 kts | 316° |
| 2026-05-04 11:16 | 44.50982 | 21.41042 | 36155 ft | 461 kts | 315° |
| 2026-05-04 11:16 | 44.55069 | 21.34204 | 36151 ft | 461 kts | 315° |
| 2026-05-04 11:17 | 44.59177 | 21.27317 | 36149 ft | 460 kts | 315° |
| 2026-05-04 11:19 | 44.75528 | 20.99737 | 36145 ft | 458 kts | 314° |
| 2026-05-04 11:19 | 44.79591 | 20.92842 | 36147 ft | 457 kts | 314° |
| 2026-05-04 11:20 | 44.83648 | 20.85941 | 36149 ft | 457 kts | 314° |
| 2026-05-04 11:20 | 44.87698 | 20.79035 | 36148 ft | 457 kts | 314° |
| 2026-05-04 11:22 | 45.03862 | 20.51304 | 36152 ft | 457 kts | 313° |
| 2026-05-04 11:23 | 45.07865 | 20.44393 | 36150 ft | 457 kts | 313° |
| 2026-05-04 11:25 | 45.21939 | 20.19962 | 36147 ft | 457 kts | 313° |
| 2026-05-04 11:25 | 45.25950 | 20.12963 | 36142 ft | 457 kts | 313° |
| 2026-05-04 11:27 | 45.43927 | 19.81368 | 36135 ft | 456 kts | 312° |
| 2026-05-04 11:28 | 45.47898 | 19.74340 | 36103 ft | 454 kts | 311° |
| 2026-05-04 11:28 | 45.51842 | 19.67342 | 36128 ft | 452 kts | 311° |
| 2026-05-04 11:29 | 45.55773 | 19.60351 | 36131 ft | 451 kts | 310° |
| 2026-05-04 11:29 | 45.59695 | 19.53360 | 36128 ft | 451 kts | 310° |
| 2026-05-04 11:33 | 45.86983 | 19.04220 | 36126 ft | 451 kts | 310° |
| 2026-05-04 11:33 | 45.90848 | 18.97192 | 36122 ft | 452 kts | 310° |
| 2026-05-04 11:34 | 45.94745 | 18.90102 | 36119 ft | 452 kts | 310° |
| 2026-05-04 11:34 | 45.98675 | 18.83030 | 36117 ft | 453 kts | 310° |
| 2026-05-04 11:35 | 46.02611 | 18.75947 | 36118 ft | 453 kts | 310° |
| 2026-05-04 11:35 | 46.06541 | 18.68846 | 36125 ft | 454 kts | 310° |
| 2026-05-04 11:36 | 46.10467 | 18.61726 | 36118 ft | 454 kts | 309° |
| 2026-05-04 11:36 | 46.14396 | 18.54582 | 36118 ft | 455 kts | 309° |
| 2026-05-04 11:37 | 46.18322 | 18.47425 | 36121 ft | 455 kts | 309° |
| 2026-05-04 11:37 | 46.22246 | 18.40251 | 36117 ft | 455 kts | 309° |
| 2026-05-04 11:38 | 46.26164 | 18.33070 | 36117 ft | 455 kts | 309° |
| 2026-05-04 11:38 | 46.30083 | 18.25870 | 36115 ft | 456 kts | 309° |
| 2026-05-04 11:39 | 46.34000 | 18.18654 | 36104 ft | 456 kts | 309° |
| 2026-05-04 11:41 | 46.47661 | 17.93346 | 36104 ft | 455 kts | 308° |
| 2026-05-04 11:41 | 46.51552 | 17.86093 | 36098 ft | 455 kts | 308° |
| 2026-05-04 11:42 | 46.55436 | 17.78834 | 36102 ft | 455 kts | 308° |
| 2026-05-04 11:42 | 46.59313 | 17.71572 | 36094 ft | 455 kts | 308° |
| 2026-05-04 11:43 | 46.62556 | 17.65544 | 36093 ft | 455 kts | 309° |
| 2026-05-04 11:43 | 46.67253 | 17.57305 | 36085 ft | 455 kts | 310° |
| 2026-05-04 11:44 | 46.71309 | 17.50239 | 36087 ft | 455 kts | 310° |
| 2026-05-04 11:44 | 46.75343 | 17.43140 | 36081 ft | 455 kts | 310° |
| 2026-05-04 11:45 | 46.78709 | 17.37182 | 36079 ft | 454 kts | 309° |
| 2026-05-04 11:45 | 46.82719 | 17.30056 | 36080 ft | 454 kts | 309° |
| 2026-05-04 11:46 | 46.86696 | 17.22973 | 36079 ft | 454 kts | 309° |
| 2026-05-04 11:46 | 46.90699 | 17.15825 | 36080 ft | 454 kts | 309° |
| 2026-05-04 11:47 | 46.94699 | 17.08667 | 36073 ft | 454 kts | 309° |
| 2026-05-04 11:47 | 46.98694 | 17.01497 | 36072 ft | 454 kts | 309° |
| 2026-05-04 11:48 | 47.02679 | 16.94326 | 36066 ft | 454 kts | 309° |
| 2026-05-04 11:48 | 47.06664 | 16.87139 | 36057 ft | 454 kts | 309° |
| 2026-05-04 11:49 | 47.10641 | 16.79945 | 36059 ft | 454 kts | 309° |
| 2026-05-04 11:49 | 47.14613 | 16.72739 | 36059 ft | 454 kts | 309° |
| 2026-05-04 11:50 | 47.18581 | 16.65524 | 36047 ft | 454 kts | 309° |
| 2026-05-04 11:50 | 47.22545 | 16.58295 | 36047 ft | 454 kts | 308° |
| 2026-05-04 11:51 | 47.26501 | 16.51066 | 36045 ft | 454 kts | 308° |
| 2026-05-04 11:51 | 47.30305 | 16.43646 | 36047 ft | 454 kts | 304° |
| 2026-05-04 11:52 | 47.33842 | 16.35950 | 36042 ft | 453 kts | 303° |
| 2026-05-04 11:52 | 47.37353 | 16.28228 | 36040 ft | 454 kts | 303° |
| 2026-05-04 11:53 | 47.40873 | 16.20506 | 36042 ft | 453 kts | 303° |
| 2026-05-04 11:53 | 47.44394 | 16.12792 | 36042 ft | 452 kts | 303° |
| 2026-05-04 11:55 | 47.58380 | 15.81974 | 36031 ft | 451 kts | 303° |
| 2026-05-04 11:56 | 47.61862 | 15.74244 | 36032 ft | 451 kts | 303° |
| 2026-05-04 11:56 | 47.65341 | 15.66502 | 36030 ft | 451 kts | 303° |
| 2026-05-04 11:57 | 47.68813 | 15.58752 | 36036 ft | 451 kts | 302° |
| 2026-05-04 11:57 | 47.72288 | 15.50974 | 36020 ft | 452 kts | 302° |
| 2026-05-04 11:58 | 47.75756 | 15.43189 | 36028 ft | 452 kts | 302° |
| 2026-05-04 11:58 | 47.79223 | 15.35382 | 36015 ft | 452 kts | 302° |
| 2026-05-04 11:59 | 47.82685 | 15.27570 | 36014 ft | 452 kts | 302° |
| 2026-05-04 11:59 | 47.86111 | 15.19813 | 36008 ft | 452 kts | 302° |
| 2026-05-04 12:00 | 47.89559 | 15.11983 | 36003 ft | 452 kts | 302° |
| 2026-05-04 12:00 | 47.93000 | 15.04148 | 36006 ft | 451 kts | 302° |
| 2026-05-04 12:01 | 47.96434 | 14.96306 | 35995 ft | 452 kts | 302° |
| 2026-05-04 12:02 | 48.08438 | 14.68718 | 35989 ft | 453 kts | 301° |
| 2026-05-04 12:03 | 48.11856 | 14.60803 | 35999 ft | 453 kts | 301° |
| 2026-05-04 12:03 | 48.15276 | 14.52869 | 35993 ft | 453 kts | 301° |
| 2026-05-04 12:04 | 48.18687 | 14.44932 | 35986 ft | 453 kts | 301° |
| 2026-05-04 12:04 | 48.22093 | 14.36981 | 35995 ft | 453 kts | 301° |
| 2026-05-04 12:05 | 48.25492 | 14.29028 | 35987 ft | 453 kts | 301° |
| 2026-05-04 12:05 | 48.28880 | 14.21068 | 35994 ft | 452 kts | 301° |
| 2026-05-04 12:06 | 48.32264 | 14.13102 | 35993 ft | 452 kts | 301° |
| 2026-05-04 12:06 | 48.35636 | 14.05136 | 35991 ft | 452 kts | 300° |
| 2026-05-04 12:07 | 48.39005 | 13.97157 | 35992 ft | 451 kts | 300° |
| 2026-05-04 12:07 | 48.42363 | 13.89179 | 35988 ft | 451 kts | 300° |
| 2026-05-04 12:08 | 48.45717 | 13.81187 | 35997 ft | 451 kts | 300° |
| 2026-05-04 12:08 | 48.49059 | 13.73194 | 35985 ft | 451 kts | 300° |
| 2026-05-04 12:09 | 48.52399 | 13.65193 | 35983 ft | 451 kts | 300° |
| 2026-05-04 12:09 | 48.55709 | 13.57235 | 35997 ft | 451 kts | 300° |
| 2026-05-04 12:10 | 48.59162 | 13.49325 | 35993 ft | 452 kts | 305° |
| 2026-05-04 12:10 | 48.63275 | 13.42100 | 35996 ft | 455 kts | 309° |
| 2026-05-04 12:11 | 48.67488 | 13.34938 | 35982 ft | 456 kts | 309° |
| 2026-05-04 12:11 | 48.71683 | 13.27743 | 35990 ft | 456 kts | 308° |
| 2026-05-04 12:12 | 48.75864 | 13.20510 | 35985 ft | 456 kts | 308° |
| 2026-05-04 12:12 | 48.80033 | 13.13252 | 35987 ft | 457 kts | 308° |
| 2026-05-04 12:14 | 48.96674 | 12.84092 | 35992 ft | 456 kts | 308° |
| 2026-05-04 12:15 | 49.00822 | 12.76773 | 35991 ft | 457 kts | 308° |
| 2026-05-04 12:15 | 49.04962 | 12.69445 | 35994 ft | 457 kts | 308° |
| 2026-05-04 12:16 | 49.09107 | 12.62091 | 35999 ft | 457 kts | 307° |
| 2026-05-04 12:16 | 49.13242 | 12.54735 | 35992 ft | 457 kts | 307° |
| 2026-05-04 12:17 | 49.17350 | 12.47405 | 35994 ft | 457 kts | 307° |
| 2026-05-04 12:17 | 49.21487 | 12.40004 | 35994 ft | 458 kts | 307° |
| 2026-05-04 12:18 | 49.25617 | 12.32592 | 35999 ft | 457 kts | 307° |
| 2026-05-04 12:18 | 49.29740 | 12.25173 | 35998 ft | 458 kts | 307° |
| 2026-05-04 12:19 | 49.33858 | 12.17744 | 36003 ft | 457 kts | 307° |
| 2026-05-04 12:19 | 49.37971 | 12.10302 | 36011 ft | 457 kts | 307° |
| 2026-05-04 12:20 | 49.42080 | 12.02845 | 36006 ft | 458 kts | 307° |
| 2026-05-04 12:20 | 49.46190 | 11.95367 | 36024 ft | 458 kts | 307° |
| 2026-05-04 12:21 | 49.50292 | 11.87880 | 36045 ft | 458 kts | 307° |
| 2026-05-04 12:21 | 49.54393 | 11.80373 | 36049 ft | 458 kts | 306° |
| 2026-05-04 12:22 | 49.58489 | 11.72854 | 36049 ft | 458 kts | 306° |
| 2026-05-04 12:22 | 49.62579 | 11.65326 | 36027 ft | 458 kts | 306° |
| 2026-05-04 12:23 | 49.66664 | 11.57786 | 36022 ft | 458 kts | 306° |
| 2026-05-04 12:23 | 49.70741 | 11.50236 | 36034 ft | 458 kts | 306° |
| 2026-05-04 12:24 | 49.74810 | 11.42681 | 36007 ft | 458 kts | 306° |
| 2026-05-04 12:24 | 49.78876 | 11.35111 | 36000 ft | 458 kts | 306° |
| 2026-05-04 12:25 | 49.82952 | 11.27497 | 35998 ft | 458 kts | 306° |
| 2026-05-04 12:25 | 49.87018 | 11.19881 | 36004 ft | 458 kts | 306° |
| 2026-05-04 12:26 | 49.91078 | 11.12255 | 36000 ft | 459 kts | 306° |
| 2026-05-04 12:26 | 49.95137 | 11.04609 | 36002 ft | 459 kts | 306° |
| 2026-05-04 12:27 | 49.99188 | 10.96955 | 35997 ft | 459 kts | 305° |
| 2026-05-04 12:27 | 50.03238 | 10.89279 | 35997 ft | 459 kts | 305° |
| 2026-05-04 12:28 | 50.07253 | 10.81650 | 36000 ft | 458 kts | 305° |
| 2026-05-04 12:28 | 50.11287 | 10.73960 | 35991 ft | 458 kts | 305° |
| 2026-05-04 12:29 | 50.15310 | 10.66268 | 35996 ft | 458 kts | 305° |
| 2026-05-04 12:29 | 50.19330 | 10.58559 | 35992 ft | 458 kts | 305° |
| 2026-05-04 12:30 | 50.23344 | 10.50841 | 35990 ft | 458 kts | 305° |
| 2026-05-04 12:30 | 50.26702 | 10.44366 | 35990 ft | 457 kts | 305° |
| 2026-05-04 12:31 | 50.30665 | 10.36699 | 35993 ft | 457 kts | 304° |
| 2026-05-04 12:31 | 50.34656 | 10.28964 | 35990 ft | 456 kts | 304° |
| 2026-05-04 12:32 | 50.40833 | 10.17495 | 35982 ft | 458 kts | 307° |
| 2026-05-04 12:33 | 50.44976 | 10.09997 | 35989 ft | 458 kts | 306° |
| 2026-05-04 12:33 | 50.49126 | 10.02421 | 35994 ft | 458 kts | 306° |
| 2026-05-04 12:34 | 50.53259 | 9.94815 | 35981 ft | 458 kts | 306° |
| 2026-05-04 12:34 | 50.57389 | 9.87182 | 35994 ft | 458 kts | 306° |
| 2026-05-04 12:35 | 50.61516 | 9.79533 | 35991 ft | 458 kts | 306° |
| 2026-05-04 12:35 | 50.65639 | 9.71869 | 35983 ft | 459 kts | 306° |
| 2026-05-04 12:36 | 50.69764 | 9.64182 | 35986 ft | 459 kts | 306° |
| 2026-05-04 12:36 | 50.73870 | 9.56505 | 35990 ft | 458 kts | 306° |
| 2026-05-04 12:37 | 50.77983 | 9.48792 | 35993 ft | 458 kts | 305° |
| 2026-05-04 12:37 | 50.82079 | 9.41089 | 35971 ft | 458 kts | 305° |
| 2026-05-04 12:38 | 50.86171 | 9.33369 | 35967 ft | 458 kts | 305° |
| 2026-05-04 12:38 | 50.90253 | 9.25648 | 35981 ft | 457 kts | 305° |
| 2026-05-04 12:39 | 50.94328 | 9.17913 | 35971 ft | 457 kts | 305° |
| 2026-05-04 12:39 | 50.98396 | 9.10170 | 35971 ft | 456 kts | 304° |
| 2026-05-04 12:40 | 51.02452 | 9.02425 | 35974 ft | 456 kts | 304° |
| 2026-05-04 12:40 | 51.06500 | 8.94672 | 35976 ft | 456 kts | 304° |
| 2026-05-04 12:41 | 51.10546 | 8.86903 | 35977 ft | 456 kts | 304° |
| 2026-05-04 12:41 | 51.14667 | 8.79219 | 35974 ft | 458 kts | 308° |
| 2026-05-04 12:42 | 51.19099 | 8.71916 | 35985 ft | 459 kts | 309° |
| 2026-05-04 12:42 | 51.23573 | 8.64645 | 35986 ft | 459 kts | 309° |
| 2026-05-04 12:43 | 51.28030 | 8.57336 | 35979 ft | 460 kts | 308° |
| 2026-05-04 12:43 | 51.32477 | 8.49983 | 35983 ft | 461 kts | 308° |
| 2026-05-04 12:44 | 51.36899 | 8.42637 | 35978 ft | 461 kts | 308° |
| 2026-05-04 12:44 | 51.41338 | 8.35243 | 35976 ft | 462 kts | 308° |
| 2026-05-04 12:45 | 51.45788 | 8.27810 | 35978 ft | 462 kts | 308° |
| 2026-05-04 12:45 | 51.50236 | 8.20355 | 35983 ft | 462 kts | 308° |
| 2026-05-04 12:46 | 51.54681 | 8.12885 | 35974 ft | 463 kts | 308° |
| 2026-05-04 12:46 | 51.59123 | 8.05397 | 35973 ft | 463 kts | 308° |
| 2026-05-04 12:47 | 51.63559 | 7.97898 | 35968 ft | 462 kts | 308° |
| 2026-05-04 12:47 | 51.67958 | 7.90439 | 35976 ft | 462 kts | 308° |
| 2026-05-04 12:48 | 51.72385 | 7.82911 | 35796 ft | 459 kts | 307° |
| 2026-05-04 12:48 | 51.74591 | 7.79150 | 35510 ft | 460 kts | 307° |
| 2026-05-04 12:48 | 51.76789 | 7.75394 | 35206 ft | 461 kts | 307° |
| 2026-05-04 12:48 | 51.78992 | 7.71625 | 34920 ft | 461 kts | 307° |
| 2026-05-04 12:49 | 51.81196 | 7.67849 | 34475 ft | 463 kts | 307° |
| 2026-05-04 12:49 | 51.83408 | 7.64054 | 33830 ft | 462 kts | 307° |
| 2026-05-04 12:49 | 51.85597 | 7.60299 | 33258 ft | 457 kts | 307° |
| 2026-05-04 12:49 | 51.87762 | 7.56580 | 32768 ft | 451 kts | 307° |
| 2026-05-04 12:50 | 51.89900 | 7.52900 | 32271 ft | 446 kts | 307° |
| 2026-05-04 12:50 | 51.92015 | 7.49251 | 31795 ft | 442 kts | 307° |
| 2026-05-04 12:50 | 51.94104 | 7.45642 | 31317 ft | 437 kts | 307° |
| 2026-05-04 12:50 | 51.96175 | 7.42057 | 30860 ft | 433 kts | 307° |
| 2026-05-04 12:51 | 51.98224 | 7.38503 | 30388 ft | 429 kts | 306° |
| 2026-05-04 12:51 | 52.00254 | 7.34979 | 29907 ft | 426 kts | 306° |
| 2026-05-04 12:51 | 52.02262 | 7.31487 | 29392 ft | 422 kts | 306° |
| 2026-05-04 12:51 | 52.04252 | 7.28022 | 28900 ft | 417 kts | 307° |
| 2026-05-04 12:52 | 52.06219 | 7.24594 | 28429 ft | 412 kts | 306° |
| 2026-05-04 12:52 | 52.08161 | 7.21204 | 27965 ft | 408 kts | 307° |
| 2026-05-04 12:52 | 52.10085 | 7.17838 | 27506 ft | 404 kts | 307° |
| 2026-05-04 12:52 | 52.11968 | 7.14541 | 27050 ft | 401 kts | 307° |
| 2026-05-04 12:53 | 52.13858 | 7.11226 | 26591 ft | 398 kts | 307° |
| 2026-05-04 12:53 | 52.15733 | 7.07934 | 26159 ft | 395 kts | 307° |
| 2026-05-04 12:53 | 52.17589 | 7.04671 | 25722 ft | 392 kts | 307° |
| 2026-05-04 12:53 | 52.19443 | 7.01408 | 25289 ft | 390 kts | 307° |
| 2026-05-04 12:54 | 52.21280 | 6.98173 | 24854 ft | 388 kts | 307° |
| 2026-05-04 12:54 | 52.23040 | 6.94899 | 24537 ft | 381 kts | 304° |
| 2026-05-04 12:54 | 52.24699 | 6.91572 | 24211 ft | 376 kts | 303° |
| 2026-05-04 12:54 | 52.26298 | 6.88306 | 23621 ft | 363 kts | 303° |
| 2026-05-04 12:55 | 52.27890 | 6.85038 | 22866 ft | 369 kts | 302° |
| 2026-05-04 12:55 | 52.29259 | 6.81578 | 22197 ft | 362 kts | 292° |
| 2026-05-04 12:55 | 52.30285 | 6.77849 | 21698 ft | 358 kts | 287° |
| 2026-05-04 12:55 | 52.31058 | 6.74027 | 21322 ft | 352 kts | 283° |
| 2026-05-04 12:56 | 52.31737 | 6.70205 | 20937 ft | 349 kts | 283° |
| 2026-05-04 12:56 | 52.32399 | 6.66402 | 20512 ft | 347 kts | 283° |
| 2026-05-04 12:56 | 52.33056 | 6.62612 | 20082 ft | 346 kts | 283° |
| 2026-05-04 12:56 | 52.33710 | 6.58841 | 19669 ft | 344 kts | 283° |
| 2026-05-04 12:57 | 52.34362 | 6.55094 | 19247 ft | 342 kts | 283° |
| 2026-05-04 12:57 | 52.35013 | 6.51358 | 18855 ft | 340 kts | 283° |
| 2026-05-04 12:57 | 52.35661 | 6.47640 | 18453 ft | 339 kts | 284° |
| 2026-05-04 12:57 | 52.36306 | 6.43944 | 18024 ft | 337 kts | 284° |
| 2026-05-04 12:58 | 52.36946 | 6.40265 | 17576 ft | 335 kts | 284° |
| 2026-05-04 12:58 | 52.37582 | 6.36610 | 17131 ft | 333 kts | 284° |
| 2026-05-04 12:58 | 52.38211 | 6.32982 | 16709 ft | 331 kts | 284° |
| 2026-05-04 12:58 | 52.38837 | 6.29368 | 16277 ft | 329 kts | 284° |
| 2026-05-04 12:59 | 52.39459 | 6.25773 | 15846 ft | 328 kts | 284° |
| 2026-05-04 12:59 | 52.40077 | 6.22193 | 15422 ft | 326 kts | 284° |
| 2026-05-04 12:59 | 52.40690 | 6.18632 | 14994 ft | 324 kts | 284° |
| 2026-05-04 12:59 | 52.41299 | 6.15086 | 14592 ft | 323 kts | 284° |
| 2026-05-04 13:00 | 52.41906 | 6.11548 | 14184 ft | 321 kts | 284° |
| 2026-05-04 13:00 | 52.42508 | 6.08031 | 13778 ft | 320 kts | 284° |
| 2026-05-04 13:00 | 52.43105 | 6.04536 | 13388 ft | 317 kts | 284° |
| 2026-05-04 13:00 | 52.43690 | 6.01104 | 13164 ft | 308 kts | 284° |
| 2026-05-04 13:01 | 52.44258 | 5.97768 | 12979 ft | 299 kts | 284° |
| 2026-05-04 13:01 | 52.44810 | 5.94521 | 12726 ft | 293 kts | 284° |
| 2026-05-04 13:01 | 52.45351 | 5.91327 | 12367 ft | 290 kts | 284° |
| 2026-05-04 13:01 | 52.45888 | 5.88151 | 11961 ft | 289 kts | 284° |
| 2026-05-04 13:02 | 52.46423 | 5.84981 | 11549 ft | 288 kts | 284° |
| 2026-05-04 13:02 | 52.46956 | 5.81823 | 11155 ft | 287 kts | 284° |
| 2026-05-04 13:02 | 52.47483 | 5.78686 | 10741 ft | 281 kts | 284° |
| 2026-05-04 13:02 | 52.48004 | 5.75585 | 10127 ft | 285 kts | 284° |
| 2026-05-04 13:03 | 52.48530 | 5.72446 | 9707 ft | 285 kts | 284° |
| 2026-05-04 13:03 | 52.49053 | 5.69327 | 9372 ft | 281 kts | 284° |
| 2026-05-04 13:03 | 52.49567 | 5.66254 | 8996 ft | 279 kts | 284° |
| 2026-05-04 13:03 | 52.50071 | 5.63233 | 8603 ft | 278 kts | 284° |
| 2026-05-04 13:04 | 52.50584 | 5.60149 | 8200 ft | 276 kts | 284° |
| 2026-05-04 13:04 | 52.50797 | 5.57112 | 7684 ft | 273 kts | 261° |
| 2026-05-04 13:04 | 52.50171 | 5.54197 | 7257 ft | 270 kts | 240° |
| 2026-05-04 13:04 | 52.49219 | 5.51586 | 7036 ft | 264 kts | 239° |
| 2026-05-04 13:05 | 52.48267 | 5.49026 | 6822 ft | 262 kts | 238° |
| 2026-05-04 13:05 | 52.47324 | 5.46496 | 6640 ft | 260 kts | 238° |
| 2026-05-04 13:05 | 52.46386 | 5.43978 | 6438 ft | 258 kts | 239° |
| 2026-05-04 13:05 | 52.45458 | 5.41480 | 6230 ft | 255 kts | 239° |
| 2026-05-04 13:06 | 52.44537 | 5.39000 | 6024 ft | 254 kts | 239° |
| 2026-05-04 13:06 | 52.43625 | 5.36539 | 5806 ft | 252 kts | 239° |
| 2026-05-04 13:06 | 52.42728 | 5.34120 | 5606 ft | 248 kts | 239° |
| 2026-05-04 13:06 | 52.41858 | 5.31773 | 5358 ft | 236 kts | 239° |
| 2026-05-04 13:07 | 52.41026 | 5.29527 | 5110 ft | 222 kts | 239° |
| 2026-05-04 13:07 | 52.40246 | 5.27423 | 4858 ft | 213 kts | 239° |
| 2026-05-04 13:07 | 52.39478 | 5.25352 | 4753 ft | 214 kts | 239° |
| 2026-05-04 13:07 | 52.38698 | 5.23252 | 4665 ft | 217 kts | 239° |
| 2026-05-04 13:08 | 52.37909 | 5.21129 | 4511 ft | 223 kts | 239° |
| 2026-05-04 13:08 | 52.37100 | 5.18950 | 4232 ft | 224 kts | 239° |
| 2026-05-04 13:08 | 52.36298 | 5.16796 | 3949 ft | 219 kts | 239° |
| 2026-05-04 13:08 | 52.35517 | 5.14700 | 3676 ft | 212 kts | 239° |
| 2026-05-04 13:09 | 52.34771 | 5.12699 | 3555 ft | 199 kts | 239° |
| 2026-05-04 13:09 | 52.34058 | 5.10790 | 3451 ft | 196 kts | 239° |
| 2026-05-04 13:09 | 52.33379 | 5.08870 | 3360 ft | 194 kts | 246° |
| 2026-05-04 13:09 | 52.32923 | 5.06768 | 3156 ft | 197 kts | 254° |
| 2026-05-04 13:10 | 52.32692 | 5.04626 | 3024 ft | 193 kts | 265° |
| 2026-05-04 13:10 | 52.32603 | 5.02420 | 2740 ft | 194 kts | 267° |
| 2026-05-04 13:10 | 52.32532 | 5.00236 | 2487 ft | 191 kts | 267° |
| 2026-05-04 13:10 | 52.32462 | 4.98096 | 2216 ft | 185 kts | 267° |
| 2026-05-04 13:11 | 52.32394 | 4.96090 | 2010 ft | 169 kts | 268° |
| 2026-05-04 13:11 | 52.32330 | 4.94208 | 1771 ft | 165 kts | 268° |
| 2026-05-04 13:11 | 52.32266 | 4.92305 | 1574 ft | 171 kts | 268° |
| 2026-05-04 13:11 | 52.32199 | 4.90334 | 1326 ft | 173 kts | 268° |
| 2026-05-04 13:12 | 52.32132 | 4.88374 | 1085 ft | 170 kts | 268° |
| 2026-05-04 13:12 | 52.32069 | 4.86503 | 843 ft | 161 kts | 268° |
| 2026-05-04 13:12 | 52.32008 | 4.84737 | 674 ft | 153 kts | 268° |
| 2026-05-04 13:12 | 52.31949 | 4.82978 | 407 ft | 155 kts | 267° |
| 2026-05-04 13:13 | 52.31888 | 4.81253 | 184 ft | 149 kts | 268° |
| 2026-05-04 13:13 | 52.31831 | 4.79576 | 43 ft | 150 kts | 268° |
| 2026-05-04 13:13 | 52.31776 | 4.77949 | 3 ft | 123 kts | 266° |
| 2026-05-04 13:13 | 52.31739 | 4.76844 | 2 ft | 71 kts | 266° |
| 2026-05-04 13:14 | 52.31698 | 4.76238 | 4 ft | 38 kts | 249° |
| 2026-05-04 13:14 | 52.31605 | 4.75981 | 3 ft | 23 kts | 236° |
| 2026-05-04 13:14 | 52.31530 | 4.75812 | 3 ft | 14 kts | 220° |
| 2026-05-04 13:14 | 52.31455 | 4.75806 | 3 ft | 11 kts | 142° |
| 2026-05-04 13:15 | 52.31442 | 4.75919 | 3 ft | 11 kts | 84° |
| 2026-05-04 13:15 | 52.31449 | 4.76041 | 3 ft | 11 kts | 85° |
| 2026-05-04 13:15 | 52.31453 | 4.76162 | 3 ft | 11 kts | 87° |
| 2026-05-04 13:15 | 52.31457 | 4.76284 | 3 ft | 11 kts | 87° |
| 2026-05-04 13:16 | 52.31461 | 4.76403 | 3 ft | 11 kts | 87° |
| 2026-05-04 13:16 | 52.31465 | 4.76526 | 3 ft | 11 kts | 87° |
| 2026-05-04 13:16 | 52.31469 | 4.76649 | 3 ft | 11 kts | 87° |
| 2026-05-04 13:16 | 52.31473 | 4.76770 | 3 ft | 11 kts | 86° |
| 2026-05-04 13:17 | 52.31478 | 4.76891 | 3 ft | 11 kts | 86° |
| 2026-05-04 13:17 | 52.31482 | 4.77015 | 3 ft | 11 kts | 86° |
| 2026-05-04 13:17 | 52.31473 | 4.77150 | 4 ft | 13 kts | 114° |
| 2026-05-04 13:17 | 52.31418 | 4.77272 | 3 ft | 14 kts | 130° |
| 2026-05-04 13:18 | 52.31376 | 4.77353 | 3 ft | 14 kts | 130° |
| 2026-05-04 13:18 | 52.31280 | 4.77494 | 3 ft | 14 kts | 161° |
| 2026-05-04 13:18 | 52.31182 | 4.77499 | 3 ft | 14 kts | 182° |
| 2026-05-04 13:18 | 52.31085 | 4.77490 | 3 ft | 15 kts | 183° |
| 2026-05-04 13:19 | 52.30970 | 4.77480 | 3 ft | 17 kts | 183° |
| 2026-05-04 13:19 | 52.30893 | 4.77473 | 3 ft | 17 kts | 183° |
| 2026-05-04 13:19 | 52.30779 | 4.77463 | 3 ft | 14 kts | 183° |
| 2026-05-04 13:19 | 52.30696 | 4.77456 | 3 ft | 11 kts | 180° |
| 2026-05-04 13:20 | 52.30637 | 4.77486 | 3 ft | 8 kts | 156° |
| 2026-05-04 13:20 | 52.30587 | 4.77525 | 3 ft | 8 kts | 152° |
| 2026-05-04 13:20 | 52.30543 | 4.77564 | 3 ft | 6 kts | 151° |
| 2026-05-04 13:20 | 52.30524 | 4.77576 | 3 ft | 1 kts | 163° |
| 2026-05-04 13:21 | 52.30523 | 4.77577 | 3 ft | 0 kts | 164° |
| 2026-05-04 13:22 | 52.30522 | 4.77577 | 3 ft | 1 kts | 164° |
| 2026-05-04 13:22 | 52.30502 | 4.77582 | 3 ft | 5 kts | 175° |
| 2026-05-04 13:22 | 52.30463 | 4.77580 | 3 ft | 6 kts | 182° |
| 2026-05-04 13:22 | 52.30416 | 4.77576 | 2 ft | 8 kts | 183° |
| 2026-05-04 13:23 | 52.30351 | 4.77570 | 2 ft | 11 kts | 183° |
| 2026-05-04 13:23 | 52.30265 | 4.77558 | 3 ft | 14 kts | 190° |
| 2026-05-04 13:23 | 52.30171 | 4.77491 | 3 ft | 15 kts | 215° |
| 2026-05-04 13:23 | 52.30104 | 4.77363 | 3 ft | 15 kts | 237° |
| 2026-05-04 13:24 | 52.30049 | 4.77220 | 3 ft | 15 kts | 238° |
| 2026-05-04 13:24 | 52.29994 | 4.77077 | 3 ft | 15 kts | 238° |
| 2026-05-04 13:24 | 52.29939 | 4.76933 | 3 ft | 15 kts | 237° |
| 2026-05-04 13:25 | 52.29827 | 4.76739 | 3 ft | 7 kts | 226° |
| 2026-05-04 13:25 | 52.29783 | 4.76736 | 3 ft | 8 kts | 148° |
| 2026-05-04 13:25 | 52.29749 | 4.76773 | 3 ft | 2 kts | 147° |
| 2026-05-04 13:25 | 52.29742 | 4.76781 | 3 ft | 0 kts | 147° |